Campanya meteocatpedra

Dades EMA Tagamanent - PN del Montseny

?
?
Resum diari
Dades diàries de l'estació meteorològica
Temperatura mitjana 5.6 °C
Temperatura màxima 9.5 °C 11:17 TU
Temperatura mínima 3.1 °C 6:31 TU
Humitat relativa mitjana 76%
Precipitació acumulada 0.0 mm
Ratxa màxima del vent sense dades sense dades
Irradiació solar global sense dades

El tram horari està expressat en Temps Universal (TU). Cal sumar una hora en horari d'hivern i dues en horari d'estiu per passar a l'hora oficial.

Tagamanent - PN del Montseny

Metadades estació meteorol´gica
Municipi Tagamanent
Comarca Vallès Oriental
Altitud 1030 m
Data alta 04.01.1996
Estat actual Operativa
Dades de període
Període
TU
TM
°C
TX
°C
TN
°C
HRM
%
PPT
mm
00:00 - 00:30 6.5 6.5 6.4 100 0.0
00:30 - 01:00 6.3 6.5 6.2 100 0.0
01:00 - 01:30 6.2 6.3 6.1 100 0.0
01:30 - 02:00 6.0 6.2 5.8 100 0.0
02:00 - 02:30 5.2 5.8 4.7 100 0.0
02:30 - 03:00 4.8 5.8 4.4 99 0.0
03:00 - 03:30 5.9 6.1 5.6 78 0.0
03:30 - 04:00 5.7 6.1 5.5 80 0.0
04:00 - 04:30 5.3 5.5 5.0 90 0.0
04:30 - 05:00 4.8 5.4 4.3 98 0.0
05:00 - 05:30 4.3 5.0 4.1 100 0.0
05:30 - 06:00 5.1 5.2 4.8 99 0.0
06:00 - 06:30 3.9 4.7 3.2 98 0.0
06:30 - 07:00 3.4 3.7 3.1 87 0.0
07:00 - 07:30 3.4 3.7 3.3 80 0.0
07:30 - 08:00 3.7 4.1 3.4 77 0.0
08:00 - 08:30 4.8 5.6 4.1 75 0.0
08:30 - 09:00 4.3 5.2 3.7 76 0.0
09:00 - 09:30 3.9 4.3 3.7 77 0.0
09:30 - 10:00 4.1 4.2 3.9 76 0.0
10:00 - 10:30 5.8 7.0 4.1 71 0.0
10:30 - 11:00 7.6 8.4 6.8 63 0.0
11:00 - 11:30 8.6 9.5 7.7 58 0.0
11:30 - 12:00 8.3 9.1 7.7 58 0.0
12:00 - 12:30 8.3 9.2 7.8 59 0.0
12:30 - 13:00 8.2 8.9 7.4 53 0.0
13:00 - 13:30 7.3 8.3 6.6 53 0.0
13:30 - 14:00 7.2 7.8 6.6 53 0.0
14:00 - 14:30 6.4 6.5 6.2 54 0.0
14:30 - 15:00 7.0 7.4 6.4 51 0.0
15:00 - 15:30 7.3 7.6 6.9 47 0.0
15:30 - 16:00 7.0 7.5 6.3 52 0.0
16:00 - 16:30 6.0 6.2 5.5 63 0.0
16:30 - 17:00 5.3 5.5 5.0 65 0.0
17:00 - 17:30 4.7 5.0 4.5 69 0.0
17:30 - 18:00 4.2 4.4 4.0 72 0.0
18:00 - 18:30 3.8 4.0 3.7 74 0.0
18:30 - 19:00 3.6 3.7 3.5 75 0.0
19:00 - 19:30 3.4 3.5 3.3 75 0.0
19:30 - 20:00 (s/d) (s/d) (s/d) (s/d) (s/d)

Les dades en taronja només han passat un control de qualitat automàtic. Resta pendent la seva validació definitiva.